Alt de Magueyes, Puerto Rico
Current Conditions -  °F | °C
As of 5:50 PM on Thursday 20 Nov 2014 (Local Time) from TJBQ Reporting Station
Scattered Clouds Scattered Clouds  
Wind Chill: 77°   Ceiling: Unl
Heat Index: 79°   Visibility: 10mi
Dew Point: 70°   Wind: 0mph
Humidity: 78%   Direction: NA
Pressure: 29.98"   Gusts: NA
Location:  17.9715°N, 66.9368°W
Report Text: TJBQ 202150Z 00000KT 10SM SCT022 SCT030 SCT038 25/21 A2998 RMK RWY08 ATIS I
Loading
Personal Weather Stations






























Interactive Weather Map New forecast layout! Learn more

10-Day Weather Forecast

Advertisements
Track Severe Weather on mobile